ACN6421 SBKP-SBJR
Flight info
| Callsign | ACN6421 |
|---|---|
| Flight time | 1h 24m |
| Altitude | 10000 |
| Route | SBKP/15 UGIK1A.UREMI DORLU VUREP UGRAD/N0120A125 VFR DCT SBJR/21 |
| Aircraft | C208/L-SDFG/S |
Departure
| Time | 2026-05-03 20:20 |
|---|---|
| Airport | Viracopos International Airport (SBKP) |
Arrival
| Time | 2026-05-03 21:44 |
|---|---|
| Airport | Jacarepaguá - Roberto Marinho Airport (SBJR) |
| Time | Latitude | Longitude | Altitude | Speed | Heading |
|---|---|---|---|---|---|
| 2026-05-03 20:15 | -23.00674 | -47.14022 | 2151 ft | 25 kts | 307° |
| 2026-05-03 20:15 | -23.00567 | -47.14174 | 2151 ft | 24 kts | 308° |
| 2026-05-03 20:15 | -23.00476 | -47.14304 | 2150 ft | 20 kts | 306° |
| 2026-05-03 20:15 | -23.00399 | -47.14414 | 2148 ft | 17 kts | 309° |
| 2026-05-03 20:16 | -23.00326 | -47.14511 | 2147 ft | 16 kts | 311° |
| 2026-05-03 20:16 | -23.00252 | -47.14606 | 2146 ft | 17 kts | 309° |
| 2026-05-03 20:16 | -23.00167 | -47.14719 | 2145 ft | 21 kts | 315° |
| 2026-05-03 20:16 | -23.00045 | -47.14706 | 2144 ft | 17 kts | 34° |
| 2026-05-03 20:17 | -22.99991 | -47.14656 | 2143 ft | 0 kts | 44° |
| 2026-05-03 20:18 | -22.99990 | -47.14656 | 2143 ft | 1 kts | 44° |
| 2026-05-03 20:18 | -22.99967 | -47.14622 | 2143 ft | 12 kts | 59° |
| 2026-05-03 20:18 | -22.99987 | -47.14503 | 2143 ft | 24 kts | 129° |
| 2026-05-03 20:19 | -23.00175 | -47.14240 | 2147 ft | 66 kts | 128° |
| 2026-05-03 20:19 | -23.00511 | -47.13784 | 2249 ft | 86 kts | 131° |
| 2026-05-03 20:19 | -23.00921 | -47.13229 | 2369 ft | 99 kts | 131° |
| 2026-05-03 20:19 | -23.01367 | -47.12624 | 2557 ft | 106 kts | 131° |
| 2026-05-03 20:20 | -23.01855 | -47.11978 | 2685 ft | 114 kts | 130° |
| 2026-05-03 20:20 | -23.02361 | -47.11305 | 2806 ft | 119 kts | 129° |
| 2026-05-03 20:20 | -23.02884 | -47.10577 | 2929 ft | 125 kts | 130° |
| 2026-05-03 20:20 | -23.03424 | -47.09822 | 3048 ft | 128 kts | 125° |
| 2026-05-03 20:21 | -23.03952 | -47.09070 | 3137 ft | 126 kts | 129° |
| 2026-05-03 20:21 | -23.04577 | -47.08431 | 3243 ft | 124 kts | 147° |
| 2026-05-03 20:21 | -23.05347 | -47.08005 | 3344 ft | 124 kts | 148° |
| 2026-05-03 20:21 | -23.06100 | -47.07565 | 3437 ft | 122 kts | 150° |
| 2026-05-03 20:22 | -23.06837 | -47.07148 | 3525 ft | 119 kts | 149° |
| 2026-05-03 20:22 | -23.07565 | -47.06724 | 3623 ft | 119 kts | 149° |
| 2026-05-03 20:22 | -23.08294 | -47.06307 | 3717 ft | 118 kts | 149° |
| 2026-05-03 20:22 | -23.09016 | -47.05889 | 3842 ft | 116 kts | 149° |
| 2026-05-03 20:23 | -23.09724 | -47.05475 | 4032 ft | 114 kts | 148° |
| 2026-05-03 20:23 | -23.10380 | -47.05078 | 4227 ft | 105 kts | 149° |
| 2026-05-03 20:23 | -23.11042 | -47.04714 | 4407 ft | 108 kts | 149° |
| 2026-05-03 20:23 | -23.11711 | -47.04329 | 4612 ft | 110 kts | 148° |
| 2026-05-03 20:24 | -23.12385 | -47.03942 | 4806 ft | 108 kts | 148° |
| 2026-05-03 20:24 | -23.13053 | -47.03564 | 5014 ft | 109 kts | 150° |
| 2026-05-03 20:24 | -23.13726 | -47.03160 | 5204 ft | 112 kts | 143° |
| 2026-05-03 20:24 | -23.14379 | -47.02693 | 5391 ft | 114 kts | 145° |
| 2026-05-03 20:25 | -23.15051 | -47.02242 | 5590 ft | 115 kts | 144° |
| 2026-05-03 20:25 | -23.15729 | -47.01794 | 5789 ft | 113 kts | 144° |
| 2026-05-03 20:25 | -23.16410 | -47.01326 | 5974 ft | 118 kts | 146° |
| 2026-05-03 20:25 | -23.17125 | -47.00859 | 6169 ft | 121 kts | 146° |
| 2026-05-03 20:26 | -23.17856 | -47.00387 | 6365 ft | 124 kts | 148° |
| 2026-05-03 20:26 | -23.18602 | -46.99900 | 6560 ft | 126 kts | 147° |
| 2026-05-03 20:26 | -23.19349 | -46.99409 | 6746 ft | 128 kts | 148° |
| 2026-05-03 20:26 | -23.20117 | -46.98903 | 6934 ft | 130 kts | 148° |
| 2026-05-03 20:27 | -23.20922 | -46.98451 | 7127 ft | 131 kts | 155° |
| 2026-05-03 20:27 | -23.21469 | -46.98169 | 7252 ft | 131 kts | 154° |
| 2026-05-03 20:27 | -23.22567 | -46.97587 | 7518 ft | 131 kts | 154° |
| 2026-05-03 20:27 | -23.23115 | -46.97298 | 7651 ft | 132 kts | 154° |
| 2026-05-03 20:28 | -23.24210 | -46.96720 | 7903 ft | 132 kts | 153° |
| 2026-05-03 20:28 | -23.24767 | -46.96427 | 8032 ft | 132 kts | 154° |
| 2026-05-03 20:28 | -23.25593 | -46.95992 | 8225 ft | 132 kts | 154° |
| 2026-05-03 20:28 | -23.26412 | -46.95561 | 8416 ft | 132 kts | 155° |
| 2026-05-03 20:29 | -23.27240 | -46.95125 | 8609 ft | 132 kts | 155° |
| 2026-05-03 20:29 | -23.28343 | -46.94546 | 8871 ft | 133 kts | 156° |
| 2026-05-03 20:29 | -23.29172 | -46.94110 | 9069 ft | 132 kts | 155° |
| 2026-05-03 20:29 | -23.29732 | -46.93814 | 9217 ft | 132 kts | 157° |
| 2026-05-03 20:30 | -23.30551 | -46.93381 | 9409 ft | 133 kts | 158° |
| 2026-05-03 20:30 | -23.31385 | -46.92948 | 9610 ft | 134 kts | 159° |
| 2026-05-03 20:30 | -23.32227 | -46.92502 | 9817 ft | 135 kts | 156° |
| 2026-05-03 20:30 | -23.32945 | -46.91839 | 9991 ft | 141 kts | 123° |
| 2026-05-03 20:31 | -23.33454 | -46.90859 | 10005 ft | 155 kts | 122° |
| 2026-05-03 20:31 | -23.34021 | -46.89825 | 10008 ft | 162 kts | 123° |
| 2026-05-03 20:31 | -23.34611 | -46.88749 | 10008 ft | 168 kts | 122° |
| 2026-05-03 20:31 | -23.35216 | -46.87631 | 10007 ft | 174 kts | 122° |
| 2026-05-03 20:32 | -23.35838 | -46.86486 | 10018 ft | 176 kts | 122° |
| 2026-05-03 20:32 | -23.36454 | -46.85344 | 10010 ft | 178 kts | 122° |
| 2026-05-03 20:32 | -23.37084 | -46.84187 | 10003 ft | 177 kts | 121° |
| 2026-05-03 20:32 | -23.37708 | -46.83036 | 10007 ft | 177 kts | 122° |
| 2026-05-03 20:33 | -23.38336 | -46.81875 | 10007 ft | 179 kts | 121° |
| 2026-05-03 20:33 | -23.38967 | -46.80708 | 10004 ft | 178 kts | 122° |
| 2026-05-03 20:33 | -23.39594 | -46.79556 | 10007 ft | 179 kts | 122° |
| 2026-05-03 20:33 | -23.40230 | -46.78380 | 10005 ft | 180 kts | 122° |
| 2026-05-03 20:34 | -23.40864 | -46.77210 | 10007 ft | 179 kts | 122° |
| 2026-05-03 20:34 | -23.41491 | -46.76054 | 10009 ft | 179 kts | 122° |
| 2026-05-03 20:34 | -23.42122 | -46.74889 | 10011 ft | 179 kts | 122° |
| 2026-05-03 20:34 | -23.42754 | -46.73722 | 10009 ft | 179 kts | 122° |
| 2026-05-03 20:35 | -23.43388 | -46.72550 | 10012 ft | 180 kts | 122° |
| 2026-05-03 20:35 | -23.44025 | -46.71374 | 10010 ft | 180 kts | 122° |
| 2026-05-03 20:35 | -23.44661 | -46.70198 | 10011 ft | 180 kts | 122° |
| 2026-05-03 20:35 | -23.45299 | -46.69021 | 10011 ft | 180 kts | 121° |
| 2026-05-03 20:36 | -23.45925 | -46.67860 | 10009 ft | 180 kts | 121° |
| 2026-05-03 20:36 | -23.46561 | -46.66685 | 10009 ft | 179 kts | 121° |
| 2026-05-03 20:36 | -23.47194 | -46.65514 | 10014 ft | 180 kts | 122° |
| 2026-05-03 20:36 | -23.47830 | -46.64337 | 10010 ft | 180 kts | 122° |
| 2026-05-03 20:37 | -23.48465 | -46.63159 | 10009 ft | 180 kts | 121° |
| 2026-05-03 20:37 | -23.49096 | -46.61993 | 10011 ft | 180 kts | 122° |
| 2026-05-03 20:37 | -23.49732 | -46.60815 | 10011 ft | 179 kts | 121° |
| 2026-05-03 20:37 | -23.50362 | -46.59648 | 10008 ft | 179 kts | 122° |
| 2026-05-03 20:38 | -23.50990 | -46.58485 | 10011 ft | 179 kts | 122° |
| 2026-05-03 20:38 | -23.51623 | -46.57310 | 10008 ft | 180 kts | 122° |
| 2026-05-03 20:38 | -23.52259 | -46.56130 | 10011 ft | 180 kts | 123° |
| 2026-05-03 20:38 | -23.52893 | -46.54957 | 10011 ft | 179 kts | 123° |
| 2026-05-03 20:39 | -23.53526 | -46.53785 | 10012 ft | 179 kts | 122° |
| 2026-05-03 20:39 | -23.54152 | -46.52629 | 10010 ft | 179 kts | 123° |
| 2026-05-03 20:39 | -23.54783 | -46.51462 | 10010 ft | 179 kts | 123° |
| 2026-05-03 20:39 | -23.55415 | -46.50295 | 10039 ft | 179 kts | 123° |
| 2026-05-03 20:40 | -23.56049 | -46.49125 | 10036 ft | 179 kts | 123° |
| 2026-05-03 20:40 | -23.56682 | -46.47956 | 10037 ft | 179 kts | 123° |
| 2026-05-03 20:40 | -23.57313 | -46.46789 | 10026 ft | 178 kts | 123° |
| 2026-05-03 20:40 | -23.57944 | -46.45622 | 10029 ft | 178 kts | 122° |
| 2026-05-03 20:41 | -23.58564 | -46.44477 | 10023 ft | 177 kts | 122° |
| 2026-05-03 20:41 | -23.59107 | -46.43274 | 10021 ft | 179 kts | 105° |
| 2026-05-03 20:41 | -23.59153 | -46.41931 | 10017 ft | 178 kts | 79° |
| 2026-05-03 20:41 | -23.58857 | -46.40624 | 10023 ft | 178 kts | 74° |
| 2026-05-03 20:42 | -23.58564 | -46.39316 | 10022 ft | 178 kts | 76° |
| 2026-05-03 20:42 | -23.58276 | -46.38001 | 10020 ft | 178 kts | 75° |
| 2026-05-03 20:42 | -23.57988 | -46.36691 | 10017 ft | 178 kts | 76° |
| 2026-05-03 20:42 | -23.57701 | -46.35388 | 10015 ft | 179 kts | 76° |
| 2026-05-03 20:43 | -23.57410 | -46.34065 | 10015 ft | 180 kts | 76° |
| 2026-05-03 20:43 | -23.57117 | -46.32735 | 10018 ft | 180 kts | 76° |
| 2026-05-03 20:43 | -23.56825 | -46.31407 | 10021 ft | 180 kts | 76° |
| 2026-05-03 20:43 | -23.56532 | -46.30079 | 10011 ft | 181 kts | 76° |
| 2026-05-03 20:44 | -23.56237 | -46.28744 | 10020 ft | 181 kts | 76° |
| 2026-05-03 20:44 | -23.55947 | -46.27427 | 10015 ft | 181 kts | 76° |
| 2026-05-03 20:44 | -23.55653 | -46.26093 | 10007 ft | 180 kts | 76° |
| 2026-05-03 20:44 | -23.55359 | -46.24759 | 10009 ft | 181 kts | 76° |
| 2026-05-03 20:45 | -23.55068 | -46.23454 | 10012 ft | 178 kts | 76° |
| 2026-05-03 20:45 | -23.54781 | -46.22156 | 10008 ft | 179 kts | 76° |
| 2026-05-03 20:45 | -23.54490 | -46.20831 | 10004 ft | 179 kts | 76° |
| 2026-05-03 20:45 | -23.54197 | -46.19502 | 10003 ft | 180 kts | 76° |
| 2026-05-03 20:46 | -23.53906 | -46.18191 | 10011 ft | 180 kts | 76° |
| 2026-05-03 20:46 | -23.53612 | -46.16860 | 10004 ft | 180 kts | 76° |
| 2026-05-03 20:46 | -23.53318 | -46.15529 | 10012 ft | 179 kts | 76° |
| 2026-05-03 20:46 | -23.53028 | -46.14216 | 10008 ft | 178 kts | 76° |
| 2026-05-03 20:47 | -23.52734 | -46.12902 | 9995 ft | 179 kts | 76° |
| 2026-05-03 20:47 | -23.52440 | -46.11581 | 9991 ft | 179 kts | 76° |
| 2026-05-03 20:47 | -23.52153 | -46.10280 | 9991 ft | 179 kts | 76° |
| 2026-05-03 20:47 | -23.51860 | -46.08959 | 9999 ft | 178 kts | 76° |
| 2026-05-03 20:48 | -23.51568 | -46.07646 | 9997 ft | 178 kts | 76° |
| 2026-05-03 20:48 | -23.51276 | -46.06328 | 9993 ft | 180 kts | 76° |
| 2026-05-03 20:48 | -23.50983 | -46.05006 | 9996 ft | 179 kts | 76° |
| 2026-05-03 20:48 | -23.50691 | -46.03690 | 9999 ft | 178 kts | 76° |
| 2026-05-03 20:49 | -23.50403 | -46.02398 | 9989 ft | 178 kts | 76° |
| 2026-05-03 20:49 | -23.50110 | -46.01091 | 9992 ft | 178 kts | 76° |
| 2026-05-03 20:49 | -23.49817 | -45.99771 | 9998 ft | 178 kts | 76° |
| 2026-05-03 20:49 | -23.49528 | -45.98472 | 10000 ft | 178 kts | 76° |
| 2026-05-03 20:50 | -23.49236 | -45.97163 | 9995 ft | 178 kts | 76° |
| 2026-05-03 20:50 | -23.48946 | -45.95854 | 9991 ft | 177 kts | 76° |
| 2026-05-03 20:50 | -23.48655 | -45.94550 | 9991 ft | 177 kts | 75° |
| 2026-05-03 20:50 | -23.48360 | -45.93251 | 10006 ft | 175 kts | 75° |
| 2026-05-03 20:51 | -23.48072 | -45.91973 | 10003 ft | 176 kts | 76° |
| 2026-05-03 20:51 | -23.47791 | -45.90673 | 9991 ft | 176 kts | 76° |
| 2026-05-03 20:51 | -23.47500 | -45.89373 | 10006 ft | 177 kts | 75° |
| 2026-05-03 20:51 | -23.47207 | -45.88063 | 9998 ft | 177 kts | 76° |
| 2026-05-03 20:52 | -23.46913 | -45.86755 | 9997 ft | 177 kts | 76° |
| 2026-05-03 20:52 | -23.46626 | -45.85469 | 9997 ft | 177 kts | 76° |
| 2026-05-03 20:52 | -23.46335 | -45.84166 | 10003 ft | 177 kts | 75° |
| 2026-05-03 20:52 | -23.46043 | -45.82857 | 9999 ft | 177 kts | 76° |
| 2026-05-03 20:53 | -23.45755 | -45.81560 | 10003 ft | 177 kts | 75° |
| 2026-05-03 20:53 | -23.45458 | -45.80261 | 10001 ft | 176 kts | 76° |
| 2026-05-03 20:53 | -23.45170 | -45.78968 | 10001 ft | 175 kts | 75° |
| 2026-05-03 20:53 | -23.44876 | -45.77684 | 10004 ft | 175 kts | 76° |
| 2026-05-03 20:54 | -23.44595 | -45.76406 | 9999 ft | 175 kts | 76° |
| 2026-05-03 20:54 | -23.44020 | -45.73832 | 10001 ft | 175 kts | 76° |
| 2026-05-03 20:54 | -23.43730 | -45.72542 | 9997 ft | 174 kts | 76° |
| 2026-05-03 20:55 | -23.43444 | -45.71273 | 9996 ft | 175 kts | 76° |
| 2026-05-03 20:55 | -23.43154 | -45.69987 | 10003 ft | 175 kts | 76° |
| 2026-05-03 20:55 | -23.42868 | -45.68709 | 9997 ft | 173 kts | 76° |
| 2026-05-03 20:55 | -23.42581 | -45.67435 | 9997 ft | 173 kts | 76° |
| 2026-05-03 20:56 | -23.42291 | -45.66152 | 9994 ft | 174 kts | 76° |
| 2026-05-03 20:56 | -23.42007 | -45.64882 | 9991 ft | 175 kts | 76° |
| 2026-05-03 20:56 | -23.41717 | -45.63593 | 9992 ft | 175 kts | 76° |
| 2026-05-03 20:56 | -23.41428 | -45.62310 | 9991 ft | 174 kts | 76° |
| 2026-05-03 20:57 | -23.41139 | -45.61029 | 9995 ft | 174 kts | 76° |
| 2026-05-03 20:57 | -23.40850 | -45.59756 | 9994 ft | 175 kts | 76° |
| 2026-05-03 20:57 | -23.40563 | -45.58472 | 9993 ft | 175 kts | 76° |
| 2026-05-03 20:57 | -23.40274 | -45.57190 | 10006 ft | 174 kts | 76° |
| 2026-05-03 20:58 | -23.39988 | -45.55925 | 9994 ft | 174 kts | 76° |
| 2026-05-03 20:58 | -23.39698 | -45.54647 | 9998 ft | 174 kts | 76° |
| 2026-05-03 20:58 | -23.39409 | -45.53367 | 10002 ft | 173 kts | 76° |
| 2026-05-03 20:58 | -23.39121 | -45.52090 | 10002 ft | 173 kts | 76° |
| 2026-05-03 20:59 | -23.38836 | -45.50814 | 9995 ft | 173 kts | 76° |
| 2026-05-03 20:59 | -23.38567 | -45.49549 | 9994 ft | 174 kts | 77° |
| 2026-05-03 20:59 | -23.38297 | -45.48265 | 10000 ft | 175 kts | 77° |
| 2026-05-03 20:59 | -23.38022 | -45.46978 | 10000 ft | 175 kts | 77° |
| 2026-05-03 21:00 | -23.37749 | -45.45695 | 9994 ft | 174 kts | 77° |
| 2026-05-03 21:00 | -23.37568 | -45.44847 | 9993 ft | 174 kts | 77° |
| 2026-05-03 21:00 | -23.37202 | -45.43133 | 9994 ft | 174 kts | 77° |
| 2026-05-03 21:00 | -23.36931 | -45.41860 | 10003 ft | 174 kts | 77° |
| 2026-05-03 21:01 | -23.36657 | -45.40570 | 9998 ft | 173 kts | 77° |
| 2026-05-03 21:01 | -23.36385 | -45.39298 | 10006 ft | 173 kts | 77° |
| 2026-05-03 21:01 | -23.36112 | -45.38020 | 10009 ft | 173 kts | 77° |
| 2026-05-03 21:01 | -23.35837 | -45.36742 | 10001 ft | 173 kts | 76° |
| 2026-05-03 21:02 | -23.35568 | -45.35483 | 9999 ft | 173 kts | 77° |
| 2026-05-03 21:02 | -23.35296 | -45.34207 | 9999 ft | 173 kts | 77° |
| 2026-05-03 21:02 | -23.35023 | -45.32931 | 9993 ft | 173 kts | 77° |
| 2026-05-03 21:02 | -23.34750 | -45.31657 | 9995 ft | 173 kts | 76° |
| 2026-05-03 21:03 | -23.34477 | -45.30383 | 9998 ft | 172 kts | 77° |
| 2026-05-03 21:03 | -23.34207 | -45.29123 | 10005 ft | 172 kts | 77° |
| 2026-05-03 21:03 | -23.33935 | -45.27857 | 10006 ft | 172 kts | 76° |
| 2026-05-03 21:03 | -23.33662 | -45.26582 | 10001 ft | 172 kts | 77° |
| 2026-05-03 21:04 | -23.33390 | -45.25323 | 9999 ft | 172 kts | 76° |
| 2026-05-03 21:04 | -23.33120 | -45.24056 | 9999 ft | 172 kts | 76° |
| 2026-05-03 21:04 | -23.32848 | -45.22790 | 9996 ft | 172 kts | 76° |
| 2026-05-03 21:04 | -23.32575 | -45.21523 | 9996 ft | 172 kts | 77° |
| 2026-05-03 21:05 | -23.32304 | -45.20253 | 10001 ft | 173 kts | 77° |
| 2026-05-03 21:05 | -23.32029 | -45.18976 | 9996 ft | 173 kts | 76° |
| 2026-05-03 21:05 | -23.31753 | -45.17699 | 10000 ft | 173 kts | 76° |
| 2026-05-03 21:05 | -23.31483 | -45.16443 | 9998 ft | 173 kts | 76° |
| 2026-05-03 21:06 | -23.31208 | -45.15170 | 9999 ft | 172 kts | 75° |
| 2026-05-03 21:06 | -23.30936 | -45.13899 | 9998 ft | 172 kts | 76° |
| 2026-05-03 21:06 | -23.30662 | -45.12628 | 9994 ft | 172 kts | 76° |
| 2026-05-03 21:06 | -23.30387 | -45.11361 | 10002 ft | 171 kts | 76° |
| 2026-05-03 21:07 | -23.30116 | -45.10096 | 9994 ft | 172 kts | 76° |
| 2026-05-03 21:07 | -23.29847 | -45.08842 | 10001 ft | 172 kts | 76° |
| 2026-05-03 21:07 | -23.29573 | -45.07570 | 9999 ft | 173 kts | 77° |
| 2026-05-03 21:07 | -23.29289 | -45.06303 | 10007 ft | 171 kts | 75° |
| 2026-05-03 21:08 | -23.29015 | -45.05038 | 10003 ft | 172 kts | 77° |
| 2026-05-03 21:08 | -23.28751 | -45.03766 | 10009 ft | 172 kts | 76° |
| 2026-05-03 21:08 | -23.28481 | -45.02513 | 10006 ft | 173 kts | 75° |
| 2026-05-03 21:08 | -23.28204 | -45.01237 | 10009 ft | 173 kts | 75° |
| 2026-05-03 21:09 | -23.27930 | -44.99967 | 10010 ft | 171 kts | 76° |
| 2026-05-03 21:09 | -23.27654 | -44.98701 | 10009 ft | 173 kts | 75° |
| 2026-05-03 21:09 | -23.27382 | -44.97444 | 10005 ft | 173 kts | 76° |
| 2026-05-03 21:09 | -23.27107 | -44.96181 | 10010 ft | 170 kts | 76° |
| 2026-05-03 21:10 | -23.26835 | -44.94924 | 10008 ft | 171 kts | 76° |
| 2026-05-03 21:10 | -23.26562 | -44.93669 | 10008 ft | 169 kts | 75° |
| 2026-05-03 21:10 | -23.26288 | -44.92418 | 10007 ft | 170 kts | 75° |
| 2026-05-03 21:10 | -23.26017 | -44.91160 | 10002 ft | 172 kts | 76° |
| 2026-05-03 21:11 | -23.25744 | -44.89891 | 10009 ft | 172 kts | 75° |
| 2026-05-03 21:11 | -23.25471 | -44.88638 | 10011 ft | 173 kts | 75° |
| 2026-05-03 21:11 | -23.25195 | -44.87361 | 9998 ft | 172 kts | 75° |
| 2026-05-03 21:11 | -23.24921 | -44.86097 | 10002 ft | 171 kts | 75° |
| 2026-05-03 21:12 | -23.24642 | -44.84830 | 10004 ft | 172 kts | 75° |
| 2026-05-03 21:12 | -23.24370 | -44.83566 | 9995 ft | 170 kts | 76° |
| 2026-05-03 21:12 | -23.24100 | -44.82331 | 10001 ft | 171 kts | 75° |
| 2026-05-03 21:12 | -23.23826 | -44.81069 | 10008 ft | 172 kts | 76° |
| 2026-05-03 21:13 | -23.23550 | -44.79804 | 10009 ft | 172 kts | 76° |
| 2026-05-03 21:13 | -23.23275 | -44.78541 | 10010 ft | 171 kts | 76° |
| 2026-05-03 21:13 | -23.23000 | -44.77279 | 10009 ft | 171 kts | 76° |
| 2026-05-03 21:13 | -23.22724 | -44.76012 | 10011 ft | 172 kts | 76° |
| 2026-05-03 21:14 | -23.22452 | -44.74764 | 10006 ft | 172 kts | 76° |
| 2026-05-03 21:14 | -23.22176 | -44.73497 | 10010 ft | 172 kts | 76° |
| 2026-05-03 21:14 | -23.21899 | -44.72230 | 10009 ft | 172 kts | 76° |
| 2026-05-03 21:14 | -23.21622 | -44.70965 | 10004 ft | 172 kts | 76° |
| 2026-05-03 21:15 | -23.21346 | -44.69697 | 10000 ft | 172 kts | 76° |
| 2026-05-03 21:15 | -23.21069 | -44.68431 | 9995 ft | 172 kts | 76° |
| 2026-05-03 21:15 | -23.20796 | -44.67184 | 9994 ft | 172 kts | 76° |
| 2026-05-03 21:15 | -23.20520 | -44.65918 | 9997 ft | 172 kts | 76° |
| 2026-05-03 21:16 | -23.20242 | -44.64651 | 9996 ft | 172 kts | 76° |
| 2026-05-03 21:16 | -23.19965 | -44.63389 | 9993 ft | 172 kts | 76° |
| 2026-05-03 21:16 | -23.19688 | -44.62123 | 9991 ft | 171 kts | 76° |
| 2026-05-03 21:16 | -23.19411 | -44.60861 | 9993 ft | 172 kts | 76° |
| 2026-05-03 21:17 | -23.19134 | -44.59594 | 9994 ft | 172 kts | 76° |
| 2026-05-03 21:17 | -23.18950 | -44.58755 | 9993 ft | 173 kts | 76° |
| 2026-05-03 21:17 | -23.18580 | -44.57068 | 9986 ft | 173 kts | 76° |
| 2026-05-03 21:17 | -23.18300 | -44.55793 | 9989 ft | 173 kts | 76° |
| 2026-05-03 21:18 | -23.18024 | -44.54534 | 9984 ft | 173 kts | 76° |
| 2026-05-03 21:18 | -23.17744 | -44.53258 | 9977 ft | 173 kts | 76° |
| 2026-05-03 21:18 | -23.17463 | -44.51983 | 9979 ft | 173 kts | 76° |
| 2026-05-03 21:18 | -23.17183 | -44.50709 | 9980 ft | 173 kts | 76° |
| 2026-05-03 21:19 | -23.16904 | -44.49438 | 9986 ft | 172 kts | 77° |
| 2026-05-03 21:19 | -23.16627 | -44.48178 | 9983 ft | 171 kts | 76° |
| 2026-05-03 21:19 | -23.16350 | -44.46920 | 9982 ft | 171 kts | 76° |
| 2026-05-03 21:19 | -23.16076 | -44.45678 | 9974 ft | 171 kts | 77° |
| 2026-05-03 21:20 | -23.15799 | -44.44421 | 9977 ft | 171 kts | 76° |
| 2026-05-03 21:20 | -23.15523 | -44.43164 | 9980 ft | 171 kts | 76° |
| 2026-05-03 21:20 | -23.15246 | -44.41910 | 9977 ft | 171 kts | 76° |
| 2026-05-03 21:20 | -23.14968 | -44.40649 | 9975 ft | 171 kts | 76° |
| 2026-05-03 21:21 | -23.14693 | -44.39404 | 9975 ft | 172 kts | 76° |
| 2026-05-03 21:21 | -23.14414 | -44.38137 | 9977 ft | 172 kts | 76° |
| 2026-05-03 21:21 | -23.14134 | -44.36871 | 9973 ft | 172 kts | 76° |
| 2026-05-03 21:21 | -23.13855 | -44.35607 | 9976 ft | 172 kts | 76° |
| 2026-05-03 21:22 | -23.13575 | -44.34341 | 9978 ft | 172 kts | 76° |
| 2026-05-03 21:22 | -23.13297 | -44.33085 | 9977 ft | 172 kts | 76° |
| 2026-05-03 21:22 | -23.13017 | -44.31820 | 9982 ft | 172 kts | 76° |
| 2026-05-03 21:22 | -23.12736 | -44.30550 | 9979 ft | 173 kts | 76° |
| 2026-05-03 21:23 | -23.12456 | -44.29286 | 9984 ft | 170 kts | 76° |
| 2026-05-03 21:23 | -23.12182 | -44.28049 | 9981 ft | 171 kts | 76° |
| 2026-05-03 21:23 | -23.11904 | -44.26791 | 9980 ft | 172 kts | 76° |
| 2026-05-03 21:23 | -23.11624 | -44.25530 | 9980 ft | 172 kts | 76° |
| 2026-05-03 21:24 | -23.11344 | -44.24263 | 9983 ft | 173 kts | 76° |
| 2026-05-03 21:24 | -23.11062 | -44.22988 | 9986 ft | 173 kts | 76° |
| 2026-05-03 21:24 | -23.10785 | -44.21745 | 9976 ft | 170 kts | 76° |
| 2026-05-03 21:24 | -23.10505 | -44.20490 | 9972 ft | 171 kts | 76° |
| 2026-05-03 21:25 | -23.10226 | -44.19230 | 9980 ft | 172 kts | 76° |
| 2026-05-03 21:25 | -23.09945 | -44.17963 | 9973 ft | 173 kts | 76° |
| 2026-05-03 21:25 | -23.09667 | -44.16708 | 9980 ft | 173 kts | 76° |
| 2026-05-03 21:25 | -23.09385 | -44.15439 | 9983 ft | 173 kts | 76° |
| 2026-05-03 21:26 | -23.09101 | -44.14166 | 9982 ft | 173 kts | 76° |
| 2026-05-03 21:26 | -23.08819 | -44.12894 | 9976 ft | 173 kts | 76° |
| 2026-05-03 21:26 | -23.08539 | -44.11638 | 9981 ft | 173 kts | 76° |
| 2026-05-03 21:26 | -23.08255 | -44.10365 | 9975 ft | 173 kts | 76° |
| 2026-05-03 21:27 | -23.07973 | -44.09094 | 9969 ft | 173 kts | 76° |
| 2026-05-03 21:27 | -23.07691 | -44.07828 | 9975 ft | 172 kts | 76° |
| 2026-05-03 21:27 | -23.07407 | -44.06559 | 9965 ft | 172 kts | 76° |
| 2026-05-03 21:27 | -23.07127 | -44.05307 | 9969 ft | 173 kts | 76° |
| 2026-05-03 21:28 | -23.06844 | -44.04037 | 9967 ft | 173 kts | 75° |
| 2026-05-03 21:28 | -23.06561 | -44.02767 | 9963 ft | 173 kts | 75° |
| 2026-05-03 21:28 | -23.06279 | -44.01502 | 9965 ft | 172 kts | 75° |
| 2026-05-03 21:28 | -23.05996 | -44.00236 | 9965 ft | 172 kts | 75° |
| 2026-05-03 21:29 | -23.05717 | -43.98991 | 9967 ft | 172 kts | 75° |
| 2026-05-03 21:29 | -23.05434 | -43.97723 | 9960 ft | 172 kts | 75° |
| 2026-05-03 21:29 | -23.05153 | -43.96453 | 9964 ft | 173 kts | 75° |
| 2026-05-03 21:29 | -23.04869 | -43.95201 | 9964 ft | 172 kts | 75° |
| 2026-05-03 21:30 | -23.04584 | -43.93939 | 9956 ft | 172 kts | 75° |
| 2026-05-03 21:30 | -23.04303 | -43.92677 | 9959 ft | 172 kts | 75° |
| 2026-05-03 21:30 | -23.04023 | -43.91421 | 9954 ft | 171 kts | 75° |
| 2026-05-03 21:30 | -23.03742 | -43.90164 | 9954 ft | 171 kts | 75° |
| 2026-05-03 21:31 | -23.03464 | -43.88924 | 9952 ft | 171 kts | 75° |
| 2026-05-03 21:31 | -23.03181 | -43.87663 | 9950 ft | 172 kts | 75° |
| 2026-05-03 21:31 | -23.02899 | -43.86404 | 9950 ft | 171 kts | 75° |
| 2026-05-03 21:31 | -23.02617 | -43.85151 | 9950 ft | 171 kts | 75° |
| 2026-05-03 21:32 | -23.02336 | -43.83893 | 9953 ft | 171 kts | 75° |
| 2026-05-03 21:32 | -23.02053 | -43.82635 | 9949 ft | 172 kts | 74° |
| 2026-05-03 21:32 | -23.01767 | -43.81367 | 9949 ft | 173 kts | 75° |
| 2026-05-03 21:32 | -23.01485 | -43.80107 | 9953 ft | 173 kts | 75° |
| 2026-05-03 21:33 | -23.01199 | -43.78835 | 9954 ft | 173 kts | 75° |
| 2026-05-03 21:33 | -23.00913 | -43.77562 | 9947 ft | 174 kts | 74° |
| 2026-05-03 21:33 | -23.00624 | -43.76281 | 9957 ft | 174 kts | 75° |
| 2026-05-03 21:33 | -23.00340 | -43.75021 | 9945 ft | 174 kts | 75° |
| 2026-05-03 21:34 | -23.00052 | -43.73744 | 9946 ft | 173 kts | 75° |
| 2026-05-03 21:34 | -22.99760 | -43.72477 | 9951 ft | 173 kts | 74° |
| 2026-05-03 21:34 | -22.99483 | -43.71219 | 9950 ft | 173 kts | 75° |
| 2026-05-03 21:34 | -22.99340 | -43.69922 | 9949 ft | 174 kts | 89° |
| 2026-05-03 21:35 | -22.99573 | -43.68640 | 9947 ft | 174 kts | 110° |
| 2026-05-03 21:35 | -22.99984 | -43.67394 | 9862 ft | 179 kts | 109° |
| 2026-05-03 21:35 | -23.00324 | -43.66117 | 9585 ft | 169 kts | 105° |
| 2026-05-03 21:35 | -23.00609 | -43.64914 | 9246 ft | 165 kts | 105° |
| 2026-05-03 21:36 | -23.00901 | -43.63712 | 8912 ft | 163 kts | 106° |
| 2026-05-03 21:36 | -23.01197 | -43.62531 | 8581 ft | 162 kts | 106° |
| 2026-05-03 21:36 | -23.01493 | -43.61354 | 8258 ft | 161 kts | 107° |
| 2026-05-03 21:36 | -23.01784 | -43.60196 | 7944 ft | 160 kts | 107° |
| 2026-05-03 21:37 | -23.02076 | -43.59031 | 7628 ft | 158 kts | 107° |
| 2026-05-03 21:37 | -23.02361 | -43.57892 | 7311 ft | 155 kts | 108° |
| 2026-05-03 21:37 | -23.02641 | -43.56773 | 7008 ft | 152 kts | 108° |
| 2026-05-03 21:37 | -23.02914 | -43.55683 | 6699 ft | 150 kts | 108° |
| 2026-05-03 21:38 | -23.03170 | -43.54604 | 6387 ft | 147 kts | 108° |
| 2026-05-03 21:38 | -23.03450 | -43.53539 | 6058 ft | 146 kts | 109° |
| 2026-05-03 21:38 | -23.03723 | -43.52474 | 5746 ft | 146 kts | 109° |
| 2026-05-03 21:38 | -23.03989 | -43.51408 | 5425 ft | 146 kts | 109° |
| 2026-05-03 21:39 | -23.04259 | -43.50355 | 5103 ft | 146 kts | 109° |
| 2026-05-03 21:39 | -23.04512 | -43.49297 | 4781 ft | 144 kts | 109° |
| 2026-05-03 21:39 | -23.04770 | -43.48251 | 4457 ft | 143 kts | 109° |
| 2026-05-03 21:39 | -23.05032 | -43.47208 | 4133 ft | 143 kts | 109° |
| 2026-05-03 21:40 | -23.05291 | -43.46170 | 3811 ft | 141 kts | 109° |
| 2026-05-03 21:40 | -23.05548 | -43.45145 | 3492 ft | 140 kts | 109° |
| 2026-05-03 21:40 | -23.05800 | -43.44138 | 3170 ft | 140 kts | 109° |
| 2026-05-03 21:40 | -23.06054 | -43.43120 | 2850 ft | 139 kts | 109° |
| 2026-05-03 21:41 | -23.06306 | -43.42110 | 2531 ft | 138 kts | 109° |
| 2026-05-03 21:41 | -23.06555 | -43.41111 | 2213 ft | 138 kts | 109° |
| 2026-05-03 21:41 | -23.06805 | -43.40109 | 1891 ft | 137 kts | 108° |
| 2026-05-03 21:41 | -23.06890 | -43.39074 | 1553 ft | 142 kts | 82° |
| 2026-05-03 21:42 | -23.06412 | -43.38115 | 1232 ft | 149 kts | 49° |
| 2026-05-03 21:42 | -23.05492 | -43.37593 | 897 ft | 152 kts | 11° |
| 2026-05-03 21:42 | -23.04480 | -43.37537 | 756 ft | 140 kts | 2° |
| 2026-05-03 21:42 | -23.03555 | -43.37500 | 705 ft | 129 kts | 4° |
| 2026-05-03 21:43 | -23.02682 | -43.37448 | 664 ft | 120 kts | 2° |
| 2026-05-03 21:43 | -23.01844 | -43.37414 | 612 ft | 124 kts | 3° |
| 2026-05-03 21:43 | -23.01029 | -43.37361 | 486 ft | 112 kts | 3° |
| 2026-05-03 21:43 | -23.00290 | -43.37316 | 299 ft | 104 kts | 4° |
| 2026-05-03 21:44 | -22.99632 | -43.37279 | 142 ft | 89 kts | 4° |
| 2026-05-03 21:44 | -22.99050 | -43.37244 | 18 ft | 77 kts | 4° |
| 2026-05-03 21:44 | -22.98621 | -43.37218 | 15 ft | 42 kts | 4° |
| 2026-05-03 21:44 | -22.98422 | -43.37205 | 20 ft | 20 kts | 2° |
| 2026-05-03 21:45 | -22.98279 | -43.37179 | 20 ft | 21 kts | 62° |
| 2026-05-03 21:45 | -22.98320 | -43.37107 | 20 ft | 11 kts | 189° |
| 2026-05-03 21:45 | -22.98427 | -43.37114 | 19 ft | 22 kts | 184° |
| 2026-05-03 21:45 | -22.98621 | -43.37124 | 16 ft | 34 kts | 182° |
| 2026-05-03 21:46 | -22.98717 | -43.37129 | 14 ft | 13 kts | 182° |
| 2026-05-03 21:46 | -22.98753 | -43.37103 | 15 ft | 0 kts | 128° |
| 2026-05-03 21:46 | -22.98776 | -43.37104 | 15 ft | 4 kts | 194° |
| 2026-05-03 21:46 | -22.98777 | -43.37104 | 15 ft | 0 kts | 194° |